Windermere, Canada
Current Conditions -  °F | °C
As of 1:00 AM on Saturday 20 Dec 2014 (Local Time) from CYXC Reporting Station
Broken Clouds Broken Clouds  
Wind Chill:   Ceiling: 7000
Heat Index:   Visibility: 20mi
Dew Point: -3°   Wind: 2mph
Humidity: 75%   Direction: NA
Pressure: 29.89"   Gusts: NA
Location:  50.47°N, 115.97°W
Report Text: CYXC 200800Z VRB02KT 20SM BKN070 01/M03 A2989 RMK AC7 SLP150
Loading
Personal Weather Stations






























Interactive Weather Map New forecast layout! Learn more

10-Day Weather Forecast

Advertisements
Track Severe Weather on mobile